Flight Track Log - Related Links

Times and Time Zones

All times are in EDT time to prevent confusion due to time zone crossing. See the SWA16 flight status page for this flight to view local times or setup timezone preferences in your user account.

Time Position Orientation Groundspeed Altitude Reporting Facility
EDT Latitude Longitude Course Direction KTS MPH feet Rate Location/Type
Tue 08:45:38 AM 30.4867 -85.8622 308° West 251 289 7,300  Level Jacksonville Center
Tue 08:46:38 AM 30.5439 -85.9100 324° Northwest 256 295 11,000 3,600 Climbing Jacksonville Center
Tue 08:47:38 AM 30.6136 -85.9675 325° Northwest 282 325 14,500 3,550 Climbing Jacksonville Center
Tue 08:48:38 AM 30.6914 -86.0306 325° Northwest 312 359 18,100 3,600 Climbing Jacksonville Center
Tue 08:49:00 AM 30.6121 -86.2907 300° West  Level FlightAware Approximate
Tue 08:49:38 AM 30.7692 -86.0936 325° Northwest 332 382 21,700  Level Jacksonville Center
Tue 08:50:00 AM 30.6671 -86.3923 308° West  Level FlightAware Approximate
Tue 08:50:38 AM 30.8167 -86.1919 299° West 338 389 24,800  Level Jacksonville Center
Tue 08:51:38 AM 30.8178 -86.3128 271° West 330 380 27,400 2,400 Climbing Jacksonville Center
Tue 08:52:38 AM 30.8206 -86.4386 272° West 369 425 29,600 2,300 Climbing Jacksonville Center
Tue 08:53:38 AM 30.8231 -86.5669 271° West 391 450 32,000 2,700 Climbing Jacksonville Center
Tue 08:54:38 AM 30.8272 -86.7075 272° West 402 463 35,000 2,400 Climbing Jacksonville Center
Tue 08:55:38 AM 30.8194 -86.8306 266° West 402 463 36,800 1,500 Climbing Jacksonville Center
Tue 08:57:38 AM 30.8042 -87.0642 266° West 390 449 39,500 1,055 Climbing Houston Center
Tue 08:58:40 AM 30.7972 -87.2039 267° West 397 457 40,000 242 Climbing Houston Center
Tue 08:59:42 AM 30.7886 -87.3325 266° West 399 459 40,000  Level Houston Center
Tue 09:00:43 AM 30.7822 -87.4597 267° West 395 455 40,000  Level Houston Center
Tue 09:01:45 AM 30.7744 -87.5861 266° West 392 451 40,000 -48 Level Houston Center
Tue 09:02:47 AM 30.7647 -87.7283 265° West 390 449 39,900 -48 Descending Houston Center
Tue 09:03:49 AM 30.7556 -87.8525 265° West 388 447 39,900  Level Houston Center
Tue 09:04:50 AM 30.7181 -87.9722 250° West 394 453 39,900 49 Level Houston Center
Tue 09:05:52 AM 30.6786 -88.1033 251° West 395 455 40,000 48 Climbing Houston Center
Tue 09:06:54 AM 30.6411 -88.2244 250° West 394 453 40,000  Level Houston Center
Tue 09:07:56 AM 30.6036 -88.3464 250° West 398 458 40,000  Level Houston Center
Tue 09:08:57 AM 30.5656 -88.4681 250° West 400 460 40,000  Level Houston Center
Tue 09:09:59 AM 30.5264 -88.5911 250° West 404 465 40,000  Level Houston Center
Tue 09:11:01 AM 30.4881 -88.7133 250° West 402 463 40,000  Level Houston Center
Tue 09:12:03 AM 30.4497 -88.8361 250° West 404 465 40,000 -49 Level Houston Center
Tue 09:13:04 AM 30.4100 -88.9661 251° West 400 460 39,900 -49 Descending Houston Center
Tue 09:14:06 AM 30.3697 -89.0864 249° West 401 461 39,900  Level Houston Center
Tue 09:15:08 AM 30.3244 -89.2314 250° West 401 461 39,900  Level Houston Center
Tue 09:16:10 AM 30.2869 -89.3519 250° West 398 458 39,900  Level Houston Center
Tue 09:17:12 AM 30.2483 -89.4719 250° West 396 456 39,900  Level Houston Center
Tue 09:18:13 AM 30.2094 -89.5925 250° West 397 457 39,900  Level Houston Center
Tue 09:19:16 AM 30.1694 -89.7139 249° West 398 458 39,900  Level Houston Center
Tue 09:20:17 AM 30.1306 -89.8364 250° West 399 459 39,900  Level Houston Center
Tue 09:21:19 AM 30.0911 -89.9578 249° West 401 461 39,900  Level Houston Center
Tue 09:22:21 AM 30.0519 -90.0797 250° West 402 463 39,900  Level Houston Center
Tue 09:23:23 AM 30.0125 -90.2011 249° West 403 464 39,900  Level Houston Center
Tue 09:24:24 AM 29.9653 -90.3472 250° West 404 465 39,900  Level Houston Center
Tue 09:25:26 AM 29.9250 -90.4678 249° West 404 465 39,900  Level Houston Center
Tue 09:26:28 AM 29.8844 -90.5878 249° West 403 464 39,900  Level Houston Center
Tue 09:27:30 AM 29.8450 -90.7081 249° West 402 463 39,900  Level Houston Center
Tue 09:28:32 AM 29.8053 -90.8278 249° West 401 461 39,900  Level Houston Center
Tue 09:29:34 AM 29.7656 -90.9475 249° West 401 461 39,900  Level Houston Center
Tue 09:30:36 AM 29.7253 -91.0664 249° West 400 460 39,900  Level Houston Center
Tue 09:31:38 AM 29.6842 -91.2117 252° West 400 460 39,900  Level Houston Center
Tue 09:32:40 AM 29.6611 -91.3356 258° West 397 457 39,900  Level Houston Center
Tue 09:33:41 AM 29.6358 -91.4592 257° West 398 458 39,900  Level Houston Center
Tue 09:34:43 AM 29.6106 -91.5831 257° West 399 459 39,900 48 Level Houston Center
Tue 09:35:45 AM 29.5831 -91.7081 256° West 399 459 40,000  Climbing Houston Center
Tue 09:36:47 AM 29.5542 -91.8447 256° West 398 458 39,900 -48 Descending Houston Center
Tue 09:37:49 AM 29.5289 -91.9681 257° West 398 458 39,900  Level Houston Center
Tue 09:38:51 AM 29.5028 -92.0914 256° West 398 458 39,900  Level Houston Center
Tue 09:39:53 AM 29.4764 -92.2131 256° West 395 455 39,900  Level Houston Center
Tue 09:40:55 AM 29.4500 -92.3350 256° West 393 452 39,900  Level Houston Center
Tue 09:41:57 AM 29.4192 -92.4800 256° West 390 449 39,900  Level Houston Center
Tue 09:42:59 AM 29.3942 -92.5994 257° West 387 445 39,900  Level Houston Center
Tue 09:44:01 AM 29.3808 -92.7219 263° West 387 445 39,900 -48 Level Houston Center
Tue 09:45:03 AM 29.3750 -92.8431 267° West 382 440 39,800 -532 Descending Houston Center
Tue 09:46:05 AM 29.3669 -92.9672 266° West 389 448 38,800 -919 Descending Houston Center
Tue 09:47:07 AM 29.3597 -93.0919 266° West 391 450 37,900 -871 Descending Houston Center
Tue 09:48:09 AM 29.3511 -93.2211 266° West 402 463 37,000 -1,016 Descending Houston Center
Tue 09:49:11 AM 29.3419 -93.3756 266° West 405 466 35,800 -1,016 Descending Houston Center
Tue 09:50:13 AM 29.3336 -93.5022 266° West 401 461 34,900 -1,935 Descending Houston Center
Tue 09:51:15 AM 29.3258 -93.6314 266° West 404 465 31,800 -3,387 Descending Houston Center
Tue 09:52:17 AM 29.3172 -93.7619 266° West 408 470 27,900 -3,435 Descending Houston Center
Tue 09:53:19 AM 29.3086 -93.8892 266° West 403 464 24,700 -2,952 Descending Houston Center
Tue 09:54:21 AM 29.3186 -94.0092 275° West 379 436 21,800 -2,758 Descending Houston Center
Tue 09:55:23 AM 29.3394 -94.1231 282° West 368 423 19,000 -2,855 Descending Houston Center
Tue 09:56:25 AM 29.3342 -94.2561 267° West 363 418 15,900 -3,038 Descending Houston Center
Tue 09:56:42 AM 29.3267 -94.2858 254° West 371 427 15,000 -2,710 Descending Houston Center
Tue 09:57:27 AM 29.3028 -94.3650 251° West 361 415 13,100 -2,164 Descending Houston Center
Tue 09:57:43 AM 29.2919 -94.4031 252° West 361 415 12,800 -968 Descending Houston Center
Tue 09:58:29 AM 29.2736 -94.4706 253° West 352 405 12,100 -787 Descending Houston Center
Tue 09:58:44 AM 29.2772 -94.5081 276° West 333 383 12,000 -387 Descending Houston Center
Tue 09:59:31 AM 29.3094 -94.5664 302° West 335 386 11,700 -716 Descending Houston Center
Tue 10:00:33 AM 29.3547 -94.6608 299° West 337 388 10,700 -871 Descending Houston Center
Tue 10:01:35 AM 29.3950 -94.7444 299° West 316 364 9,900 -339 Descending Houston Center
Tue 10:02:37 AM 29.4375 -94.8297 300° West 262 302 10,000 -960 Climbing Houston Center
Tue 10:03:40 AM 29.4722 -94.9006 299° West 254 292 7,900 -2,000 Descending Houston Center
Tue 10:03:55 AM 29.4836 -94.9258 297° West 268 308 7,400 -1,742 Descending Houston Center
Tue 10:04:42 AM 29.5086 -94.9753 300° West 264 304 6,100 -771 Descending Houston Center
Tue 10:05:44 AM 29.5456 -95.0506 299° West 269 310 6,000 -48 Descending Houston Center
Tue 10:06:46 AM 29.5817 -95.1250 299° West 266 306 6,000 -48 Level Houston Center
Tue 10:07:48 AM 29.5747 -95.2089 265° West 269 310 5,900 -293 Descending Houston Center
Tue 10:08:49 AM 29.5311 -95.2728 232° Southwest 209 241 5,400 -639 Descending Houston Center
Tue 10:09:50 AM 29.5022 -95.3244 237° Southwest 194 223 4,600 -934 Descending Houston Center
Tue 10:10:51 AM 29.5353 -95.3636 314° West 168 193 3,500 -1,366 Descending Houston Center
Tue 10:11:53 AM 29.5725 -95.3592 North 161 185 1,800 -1,134 Descending Houston Center
Tue 10:12:58 AM 29.6006 -95.3286 43° Northeast 141 162 1,100 -661 Descending Houston Center
Tue 10:14:00 AM 29.6258 -95.2994 45° Northeast 130 150 400 -677 Descending Houston Center

Login

Don't have an account? Register now (free) for customized features, flight alerts, and more!